Time;durP1;ratioP1;P1;durP2;ratioP2;P2;SDS_P1;SDS_P2;PMS_P1;PMS_P2;Temp;Humidity;BMP_temperature;BMP_pressure;BME280_temperature;BME280_humidity;BME280_pressure;Samples;Min_cycle;Max_cycle;Signal;HPM_P1;HPM_P2
2022/04/24 00:01:57;;;;;;;5.65;3.95;;;10.50;97.30;;;;;;5032384;28;20575;-81
2022/04/24 00:04:24;;;;;;;7.38;5.82;;;10.40;97.20;;;;;;5039670;28;20264;-82
2022/04/24 00:06:53;;;;;;;6.15;4.35;;;10.40;97.30;;;;;;5047993;28;20193;-83
2022/04/24 00:09:20;;;;;;;6.25;4.72;;;10.40;97.10;;;;;;5045996;28;20191;-83
2022/04/24 00:11:47;;;;;;;4.10;3.70;;;10.40;97.10;;;;;;5049848;28;20198;-83
2022/04/24 00:14:14;;;;;;;6.57;4.72;;;10.60;97.00;;;;;;5048121;28;20228;-82
2022/04/24 00:16:42;;;;;;;5.18;4.47;;;10.40;96.90;;;;;;5052140;28;20232;-81
2022/04/24 00:19:10;;;;;;;6.18;5.60;;;10.40;97.00;;;;;;5054993;28;20232;-82
2022/04/24 00:21:37;;;;;;;4.60;4.10;;;10.50;97.10;;;;;;5042811;28;20203;-82
2022/04/24 00:24:04;;;;;;;6.22;4.30;;;10.30;97.20;;;;;;5040618;28;20212;-82
2022/04/24 00:26:31;;;;;;;5.28;4.78;;;10.20;97.40;;;;;;5041770;28;20254;-82
2022/04/24 00:28:58;;;;;;;6.50;4.90;;;10.30;97.20;;;;;;5049957;28;20190;-82
2022/04/24 00:31:25;;;;;;;5.43;4.80;;;10.20;97.20;;;;;;5052454;28;20262;-82
2022/04/24 00:33:52;;;;;;;5.38;4.88;;;10.20;97.30;;;;;;5035422;28;20200;-83
2022/04/24 00:36:20;;;;;;;5.90;4.25;;;10.20;97.40;;;;;;5028079;28;20210;-84
2022/04/24 00:38:47;;;;;;;6.65;4.95;;;10.10;97.60;;;;;;5040163;28;20213;-82
2022/04/24 00:41:14;;;;;;;4.65;4.25;;;10.20;97.50;;;;;;5031549;28;20272;-82
2022/04/24 00:43:41;;;;;;;5.60;4.63;;;10.10;97.70;;;;;;5026316;28;20368;-83
2022/04/24 00:46:19;;;;;;;9.40;4.85;;;10.10;97.80;;;;;;5026071;28;20315;-82
2022/04/24 00:48:46;;;;;;;6.07;4.20;;;10.10;97.70;;;;;;5036541;28;20196;-83
2022/04/24 00:51:13;;;;;;;6.38;4.35;;;10.00;98.10;;;;;;5043460;28;20279;-80
2022/04/24 00:53:41;;;;;;;6.65;4.85;;;10.00;97.90;;;;;;5025817;28;20237;-82
2022/04/24 00:56:09;;;;;;;4.70;3.90;;;9.90;98.70;;;;;;5045546;28;20196;-81
2022/04/24 00:58:36;;;;;;;5.45;4.68;;;9.90;98.50;;;;;;5042996;28;20228;-83
2022/04/24 01:01:03;;;;;;;5.00;4.00;;;9.90;98.60;;;;;;5036314;28;20270;-82
2022/04/24 01:03:31;;;;;;;5.25;3.67;;;9.90;98.50;;;;;;5054951;28;20180;-82
2022/04/24 01:05:57;;;;;;;6.30;4.70;;;9.90;98.60;;;;;;5052191;28;20247;-81
2022/04/24 01:08:24;;;;;;;5.13;4.35;;;9.90;98.50;;;;;;5040262;28;20224;-82
2022/04/24 01:10:53;;;;;;;6.88;4.05;;;9.90;98.40;;;;;;5053761;28;20231;-82
2022/04/24 01:13:20;;;;;;;7.80;5.22;;;9.90;98.40;;;;;;5046068;28;20232;-82
2022/04/24 01:15:46;;;;;;;5.40;4.32;;;9.90;98.50;;;;;;5053229;28;20227;-81
2022/04/24 01:18:14;;;;;;;6.53;4.70;;;9.80;98.50;;;;;;5047482;28;20235;-81
2022/04/24 01:20:42;;;;;;;14.82;4.65;;;9.80;98.60;;;;;;5051131;28;20264;-81
2022/04/24 01:23:09;;;;;;;5.90;4.47;;;9.90;99.00;;;;;;5042050;28;20188;-81
2022/04/24 01:25:36;;;;;;;4.35;3.92;;;9.70;98.80;;;;;;5043065;28;20244;-81
2022/04/24 01:28:07;;;;;;;4.03;3.63;;;9.60;98.90;;;;;;5056485;28;20184;-79
2022/04/24 01:30:35;;;;;;;8.25;5.07;;;9.60;99.10;;;;;;5055998;28;20200;-82
2022/04/24 01:33:03;;;;;;;4.72;4.22;;;9.60;99.50;;;;;;5045243;28;20193;-81
2022/04/24 01:35:29;;;;;;;5.00;4.50;;;9.50;99.40;;;;;;5041761;28;20231;-82
2022/04/24 01:37:58;;;;;;;6.60;4.55;;;9.50;99.60;;;;;;5047989;28;20209;-81
2022/04/24 01:40:25;;;;;;;6.47;4.95;;;9.60;99.90;;;;;;5058247;28;20215;-82
2022/04/24 01:42:52;;;;;;;7.70;4.70;;;9.50;99.60;;;;;;5052692;28;20211;-81
2022/04/24 01:45:19;;;;;;;7.80;4.50;;;9.40;99.60;;;;;;5058232;28;20259;-80
2022/04/24 01:47:46;;;;;;;6.25;4.00;;;9.40;99.80;;;;;;5058731;28;20212;-82
2022/04/24 01:50:13;;;;;;;7.18;3.70;;;9.40;99.90;;;;;;5054299;28;20276;-80
2022/04/24 01:52:40;;;;;;;4.72;4.30;;;9.40;99.90;;;;;;5045883;28;20273;-81
2022/04/24 01:55:08;;;;;;;4.60;3.50;;;9.40;99.90;;;;;;5042187;28;20291;-82
2022/04/24 01:57:35;;;;;;;4.70;4.25;;;9.40;99.90;;;;;;5043444;28;20283;-81
2022/04/24 02:00:02;;;;;;;5.60;4.05;;;9.40;99.90;;;;;;5042929;28;20227;-81
2022/04/24 02:02:29;;;;;;;5.05;4.55;;;9.50;99.90;;;;;;5044372;28;20247;-81
2022/04/24 02:04:56;;;;;;;5.03;3.83;;;9.50;99.90;;;;;;5034979;28;20217;-81
2022/04/24 02:07:23;;;;;;;5.47;4.45;;;9.50;99.90;;;;;;5037319;28;20197;-82
2022/04/24 02:09:50;;;;;;;5.22;4.30;;;9.60;99.90;;;;;;5038448;28;20406;-83
2022/04/24 02:12:18;;;;;;;5.15;4.50;;;9.60;99.90;;;;;;5036056;28;20212;-82
2022/04/24 02:14:45;;;;;;;6.45;4.47;;;9.70;99.90;;;;;;5048016;28;20287;-81
2022/04/24 02:17:11;;;;;;;5.45;3.88;;;9.70;99.90;;;;;;5047693;28;20200;-81
2022/04/24 02:19:40;;;;;;;6.05;4.50;;;9.70;99.90;;;;;;5053649;28;20268;-82
2022/04/24 02:22:07;;;;;;;6.25;4.20;;;9.70;99.90;;;;;;5043611;28;20269;-82
2022/04/24 02:24:34;;;;;;;5.13;4.07;;;9.60;99.90;;;;;;5043591;28;20255;-83
2022/04/24 02:27:01;;;;;;;5.55;4.80;;;9.60;99.90;;;;;;5040922;28;20238;-80
2022/04/24 02:29:29;;;;;;;5.60;4.78;;;9.80;99.90;;;;;;5029989;28;20201;-80
2022/04/24 02:31:56;;;;;;;4.85;4.18;;;9.70;99.90;;;;;;5039749;28;20238;-82
2022/04/24 02:34:25;;;;;;;5.50;4.20;;;9.70;99.90;;;;;;5041270;28;20224;-84
2022/04/24 02:36:52;;;;;;;5.03;3.75;;;9.70;99.90;;;;;;5040132;28;20208;-82
2022/04/24 02:39:19;;;;;;;6.78;4.15;;;9.70;99.80;;;;;;5043460;28;20225;-82
2022/04/24 02:41:46;;;;;;;6.13;4.13;;;9.80;99.90;;;;;;5043263;28;20204;-83
2022/04/24 02:44:13;;;;;;;6.38;4.30;;;9.80;99.90;;;;;;5038400;28;20252;-81
2022/04/24 02:46:41;;;;;;;6.38;4.25;;;9.70;99.90;;;;;;5043245;28;20239;-82
2022/04/24 02:49:08;;;;;;;6.95;4.38;;;9.70;99.90;;;;;;5041263;28;20243;-82
2022/04/24 02:51:35;;;;;;;4.80;3.92;;;9.70;99.90;;;;;;5027202;28;20204;-82
2022/04/24 02:54:02;;;;;;;5.10;4.55;;;9.70;99.90;;;;;;5042966;28;20222;-82
2022/04/24 02:56:29;;;;;;;6.60;3.88;;;9.70;99.90;;;;;;5047254;28;20211;-82
2022/04/24 02:58:56;;;;;;;5.80;3.67;;;9.70;99.90;;;;;;5056783;28;20227;-81
2022/04/24 03:01:23;;;;;;;4.75;4.18;;;9.60;99.90;;;;;;5054690;28;20232;-82
2022/04/24 03:03:51;;;;;;;8.38;4.20;;;9.60;99.90;;;;;;5042195;28;20177;-82
2022/04/24 03:06:18;;;;;;;5.43;4.28;;;9.60;99.90;;;;;;5041325;28;20204;-82
2022/04/24 03:08:47;;;;;;;5.70;4.70;;;9.60;99.90;;;;;;5055988;28;20203;-82
2022/04/24 03:11:14;;;;;;;7.22;4.10;;;9.60;99.90;;;;;;5057590;28;20283;-83
2022/04/24 03:13:41;;;;;;;5.45;4.20;;;9.60;99.90;;;;;;5050194;28;20192;-82
2022/04/24 03:16:08;;;;;;;5.72;4.00;;;9.60;99.90;;;;;;5056924;28;20250;-81
2022/04/24 03:18:35;;;;;;;4.22;3.83;;;9.60;99.90;;;;;;5057576;28;20311;-82
2022/04/24 03:21:03;;;;;;;5.30;3.95;;;9.60;99.90;;;;;;5043284;28;20235;-83
2022/04/24 03:23:30;;;;;;;7.13;4.60;;;9.70;99.90;;;;;;5057767;28;20211;-82
2022/04/24 03:25:57;;;;;;;5.93;4.20;;;9.70;99.90;;;;;;5054014;28;20228;-83
2022/04/24 03:28:24;;;;;;;5.72;4.25;;;9.70;99.90;;;;;;5057387;28;20195;-83
2022/04/24 03:30:51;;;;;;;5.65;3.88;;;9.70;99.90;;;;;;5055148;28;20238;-82
2022/04/24 03:33:18;;;;;;;7.28;4.45;;;9.60;99.90;;;;;;5043291;28;20959;-83
2022/04/24 03:35:44;;;;;;;5.47;3.65;;;9.60;99.90;;;;;;5047243;28;20287;-81
2022/04/24 03:38:13;;;;;;;4.78;4.07;;;9.60;99.90;;;;;;5050573;28;20227;-82
2022/04/24 03:40:40;;;;;;;5.38;4.20;;;9.60;99.90;;;;;;5039347;28;20213;-81
2022/04/24 03:43:07;;;;;;;5.07;3.60;;;9.70;99.90;;;;;;5040509;28;20204;-82
2022/04/24 03:45:34;;;;;;;7.35;3.75;;;9.50;99.90;;;;;;5036029;28;20292;-83
2022/04/24 03:48:00;;;;;;;4.28;3.78;;;9.50;99.90;;;;;;5045156;28;20239;-81
2022/04/24 03:50:28;;;;;;;5.88;4.03;;;9.50;99.90;;;;;;5049959;28;20188;-81
2022/04/24 03:52:54;;;;;;;5.82;4.32;;;9.50;99.90;;;;;;5045050;28;20297;-83
2022/04/24 03:55:23;;;;;;;4.10;3.28;;;9.50;99.90;;;;;;5041765;28;20209;-81
2022/04/24 03:57:50;;;;;;;5.43;3.70;;;9.50;99.90;;;;;;5042645;28;20199;-83
2022/04/24 04:00:18;;;;;;;4.32;3.50;;;9.40;99.90;;;;;;5041365;28;20247;-83
2022/04/24 04:02:46;;;;;;;5.10;3.55;;;9.40;99.90;;;;;;5041111;28;20215;-82
2022/04/24 04:05:16;;;;;;;5.90;4.00;;;9.30;99.90;;;;;;5042852;28;20270;-82
2022/04/24 04:07:44;;;;;;;4.30;3.65;;;9.30;99.90;;;;;;5039702;28;20201;-82
2022/04/24 04:10:11;;;;;;;5.18;3.35;;;9.30;99.90;;;;;;5035622;28;20215;-81
2022/04/24 04:12:39;;;;;;;4.78;3.80;;;9.40;99.90;;;;;;5044267;28;20662;-81
2022/04/24 04:15:08;;;;;;;4.65;3.08;;;9.40;99.90;;;;;;5049195;28;20258;-82
2022/04/24 04:17:35;;;;;;;6.68;3.55;;;9.40;99.90;;;;;;5040094;28;20201;-84
2022/04/24 04:20:02;;;;;;;9.05;4.10;;;9.50;99.90;;;;;;5041832;28;20258;-82
2022/04/24 04:22:29;;;;;;;4.30;3.90;;;9.40;99.90;;;;;;5044335;28;20234;-83
2022/04/24 04:24:55;;;;;;;3.83;2.83;;;9.30;99.90;;;;;;5035221;28;20220;-81
2022/04/24 04:27:26;;;;;;;3.63;3.28;;;9.50;99.90;;;;;;5039145;28;20210;-82
2022/04/24 04:29:54;;;;;;;3.50;2.90;;;9.30;99.90;;;;;;5038702;28;20200;-83
2022/04/24 04:32:21;;;;;;;3.65;3.30;;;9.40;99.90;;;;;;5039535;28;20219;-82
2022/04/24 04:34:48;;;;;;;4.55;3.05;;;9.40;99.90;;;;;;5035839;28;20270;-82
2022/04/24 04:37:14;;;;;;;3.55;3.25;;;9.40;99.90;;;;;;5031968;28;20300;-82
2022/04/24 04:39:41;;;;;;;5.47;3.00;;;9.50;99.90;;;;;;5042402;28;20256;-81
2022/04/24 04:42:08;;;;;;;4.85;3.13;;;9.50;99.90;;;;;;5032178;28;20268;-83
2022/04/24 04:44:35;;;;;;;3.08;2.50;;;9.60;99.90;;;;;;5038125;28;20255;-81
2022/04/24 04:47:04;;;;;;;4.80;3.15;;;9.60;99.90;;;;;;5040637;28;20222;-83
2022/04/24 04:49:31;;;;;;;4.78;2.30;;;9.70;99.90;;;;;;5027034;28;20200;-82
2022/04/24 04:51:58;;;;;;;4.38;2.25;;;9.70;99.90;;;;;;5031352;28;20228;-82
2022/04/24 04:54:24;;;;;;;5.63;2.78;;;9.80;99.90;;;;;;5042827;28;20652;-84
2022/04/24 04:56:51;;;;;;;4.68;2.78;;;9.90;99.90;;;;;;5032366;28;20200;-81
2022/04/24 04:59:18;;;;;;;3.05;2.63;;;10.00;99.90;;;;;;5039783;28;20284;-82
2022/04/24 05:01:45;;;;;;;4.75;2.60;;;10.10;99.50;;;;;;5037398;28;20287;-82
2022/04/24 05:04:13;;;;;;;3.45;2.80;;;10.20;99.10;;;;;;5034688;28;20227;-83
2022/04/24 05:06:40;;;;;;;4.50;2.90;;;10.40;99.30;;;;;;5031989;28;20200;-82
2022/04/24 05:09:07;;;;;;;4.72;2.42;;;10.20;98.60;;;;;;5045271;28;20296;-82
2022/04/24 05:11:35;;;;;;;4.75;3.25;;;10.30;98.50;;;;;;5040946;28;20219;-82
2022/04/24 05:14:02;;;;;;;7.05;2.55;;;10.30;98.70;;;;;;5051383;28;20616;-82
2022/04/24 05:16:30;;;;;;;4.20;3.25;;;10.20;98.60;;;;;;5053358;28;20280;-82
2022/04/24 05:18:58;;;;;;;2.80;2.17;;;10.50;98.30;;;;;;5046731;28;20222;-82
2022/04/24 05:21:27;;;;;;;5.80;2.55;;;10.60;97.90;;;;;;5051747;28;20620;-81
2022/04/24 05:23:53;;;;;;;3.08;1.92;;;10.60;97.50;;;;;;5044242;28;20192;-81
2022/04/24 05:26:21;;;;;;;3.10;2.50;;;10.70;97.70;;;;;;5041469;28;20752;-82
2022/04/24 05:28:47;;;;;;;3.15;2.80;;;10.80;97.50;;;;;;5045846;28;20200;-81
2022/04/24 05:31:14;;;;;;;3.60;2.72;;;10.80;97.20;;;;;;5057647;28;20236;-81
2022/04/24 05:33:41;;;;;;;6.40;2.97;;;10.90;97.00;;;;;;5057713;28;20241;-82
2022/04/24 05:36:08;;;;;;;5.55;2.70;;;11.00;96.90;;;;;;5056516;28;20293;-81
2022/04/24 05:38:36;;;;;;;3.65;2.22;;;11.10;96.60;;;;;;5042899;28;20203;-83
2022/04/24 05:41:03;;;;;;;3.90;2.17;;;11.00;96.50;;;;;;5054151;28;20734;-80
2022/04/24 05:43:30;;;;;;;3.33;2.58;;;11.10;96.60;;;;;;5050249;28;20205;-81
2022/04/24 05:45:57;;;;;;;4.07;2.08;;;11.20;96.40;;;;;;5044004;28;20246;-83
2022/04/24 05:48:24;;;;;;;3.67;2.55;;;11.70;96.20;;;;;;5054853;28;20235;-82
2022/04/24 05:50:51;;;;;;;2.80;2.50;;;12.90;94.90;;;;;;5040739;28;20244;-82
2022/04/24 05:53:19;;;;;;;2.78;1.85;;;14.30;92.10;;;;;;5055533;28;20186;-81
2022/04/24 05:55:47;;;;;;;3.75;2.40;;;15.50;89.20;;;;;;5043054;28;20245;-80
2022/04/24 05:58:14;;;;;;;6.15;2.85;;;16.20;85.40;;;;;;5050205;28;20213;-80
2022/04/24 06:00:41;;;;;;;3.90;2.30;;;16.70;82.90;;;;;;5050528;28;20241;-81
2022/04/24 06:03:08;;;;;;;5.40;3.07;;;17.10;81.10;;;;;;5049056;28;20494;-82
2022/04/24 06:05:35;;;;;;;3.80;2.70;;;17.70;79.20;;;;;;5044283;28;20527;-81
2022/04/24 06:08:02;;;;;;;6.93;5.10;;;18.20;78.40;;;;;;5051182;28;20490;-82
2022/04/24 06:10:29;;;;;;;4.43;2.80;;;19.00;76.50;;;;;;5044200;28;20490;-83
2022/04/24 06:12:57;;;;;;;4.53;3.40;;;19.00;73.30;;;;;;5040520;28;20458;-82
2022/04/24 06:15:26;;;;;;;5.63;2.80;;;18.70;73.90;;;;;;5037915;28;20543;-82
2022/04/24 06:17:54;;;;;;;4.40;3.20;;;18.80;73.40;;;;;;5038854;28;20456;-81
2022/04/24 06:20:23;;;;;;;5.70;3.40;;;18.70;73.20;;;;;;5030225;28;20575;-82
2022/04/24 06:22:52;;;;;;;5.73;3.10;;;18.70;72.70;;;;;;5041428;28;20504;-81
2022/04/24 06:25:20;;;;;;;4.90;3.20;;;18.60;73.30;;;;;;5039718;28;20455;-82
2022/04/24 06:27:47;;;;;;;8.60;3.77;;;19.20;72.80;;;;;;5053117;28;20494;-82
2022/04/24 06:30:17;;;;;;;4.13;3.00;;;19.40;70.70;;;;;;5040082;28;20474;-82
2022/04/24 06:32:44;;;;;;;7.33;3.50;;;19.20;70.40;;;;;;5048420;28;20471;-81
2022/04/24 06:35:14;;;;;;;4.20;3.43;;;19.20;71.30;;;;;;5057005;28;20531;-81
2022/04/24 06:37:42;;;;;;;7.43;4.00;;;19.60;70.40;;;;;;5056723;28;20475;-82
2022/04/24 06:40:11;;;;;;;4.03;3.10;;;19.70;69.20;;;;;;5046276;28;20501;-80
2022/04/24 06:42:48;;;;;;;5.67;2.77;;;19.80;68.30;;;;;;5050864;28;20459;-81
2022/04/24 06:45:25;;;;;;;3.80;3.10;;;19.70;68.60;;;;;;5056138;28;20528;-82
2022/04/24 06:47:52;;;;;;;4.53;3.50;;;19.50;69.10;;;;;;5049255;28;20447;-82
2022/04/24 06:50:19;;;;;;;6.07;3.40;;;19.70;68.70;;;;;;5048280;28;20450;-80
2022/04/24 06:52:56;;;;;;;4.80;3.17;;;19.70;68.10;;;;;;5042734;28;20455;-81
2022/04/24 06:55:23;;;;;;;5.43;3.80;;;20.30;68.00;;;;;;5035229;28;20475;-82
2022/04/24 06:57:51;;;;;;;3.73;2.90;;;20.60;66.20;;;;;;5044613;28;20459;-81
2022/04/24 07:00:20;;;;;;;4.43;3.27;;;21.00;66.20;;;;;;5046803;28;20491;-81
2022/04/24 07:02:47;;;;;;;4.37;3.10;;;21.60;65.00;;;;;;5045049;28;20454;-81
2022/04/24 07:05:14;;;;;;;6.63;3.13;;;21.90;62.50;;;;;;5036705;28;20470;-81
2022/04/24 07:07:41;;;;;;;6.03;3.07;;;22.30;63.50;;;;;;5045471;28;20518;-82
2022/04/24 07:20:08;;;;;;;6.37;3.17;;;25.10;55.90;;;;;;4946991;29;20579;-83
2022/04/24 07:22:46;;;;;;;4.33;2.30;;;25.40;55.00;;;;;;4971248;28;20781;-83
2022/04/24 07:25:13;;;;;;;4.03;3.47;;;25.30;54.10;;;;;;5035255;28;20463;-82
2022/04/24 07:31:13;;;;;;;5.43;3.50;;;25.40;53.80;;;;;;4938321;28;20458;-82
2022/04/24 07:33:52;;;;;;;3.50;2.80;;;25.20;53.30;;;;;;5029541;28;20810;-82
2022/04/24 07:36:19;;;;;;;7.30;3.60;;;24.60;53.40;;;;;;5030585;28;20469;-86
2022/04/24 07:38:53;;;;;;;4.20;3.40;;;23.80;53.90;;;;;;5039957;28;20546;-84
2022/04/24 07:44:39;;;;;;;6.65;3.38;;;22.30;56.30;;;;;;5036544;28;20477;-84
2022/04/24 07:47:23;;;;;;;8.00;3.27;;;21.60;58.20;;;;;;5028517;28;20303;-85
2022/04/24 07:50:05;;;;;;;5.07;3.43;;;22.10;58.70;;;;;;5048064;28;20465;-85
2022/04/24 07:55:55;;;;;;;6.47;3.27;;;22.10;57.50;;;;;;4968187;29;20233;-86
2022/04/24 07:58:22;;;;;;;4.43;3.00;;;22.90;56.90;;;;;;4996699;28;20790;-86
2022/04/24 08:00:49;;;;;;;5.70;2.77;;;24.00;55.80;;;;;;5048973;28;20479;-84
2022/04/24 08:03:19;;;;;;;4.20;3.23;;;24.50;53.50;;;;;;5045048;28;20428;-80
2022/04/24 08:05:49;;;;;;;4.17;2.77;;;24.50;53.70;;;;;;5043592;28;20474;-80
2022/04/24 08:08:18;;;;;;;5.23;3.33;;;24.40;53.70;;;;;;5034833;28;20475;-82
2022/04/24 08:13:51;;;;;;;7.00;3.30;;;24.60;54.90;;;;;;5043681;28;20437;-82
2022/04/24 08:16:26;;;;;;;5.07;2.83;;;25.60;53.40;;;;;;5044934;28;20443;-81
2022/04/24 08:18:53;;;;;;;8.73;3.30;;;26.20;51.50;;;;;;5029595;28;20439;-82
2022/04/24 08:21:21;;;;;;;6.33;3.50;;;26.00;51.50;;;;;;5026628;28;20483;-82
2022/04/24 08:23:48;;;;;;;5.03;3.40;;;25.90;51.20;;;;;;5038015;28;20515;-82
2022/04/24 08:26:15;;;;;;;7.60;3.57;;;25.60;50.90;;;;;;5043992;28;20503;-83
2022/04/24 08:28:42;;;;;;;5.93;3.23;;;25.20;51.30;;;;;;5042846;28;20478;-81
2022/04/24 08:31:09;;;;;;;5.50;3.50;;;25.50;51.30;;;;;;5046235;28;20438;-81
2022/04/24 08:33:35;;;;;;;6.63;3.40;;;26.10;50.70;;;;;;5051436;28;20462;-78
2022/04/24 08:36:05;;;;;;;6.87;4.40;;;26.50;49.90;;;;;;5056183;28;20502;-80
2022/04/24 08:38:33;;;;;;;6.63;4.00;;;26.60;49.20;;;;;;5056002;28;20458;-78
2022/04/24 08:41:01;;;;;;;4.43;3.10;;;26.50;49.00;;;;;;5041838;28;20527;-79
2022/04/24 08:43:29;;;;;;;4.50;3.10;;;26.50;49.20;;;;;;5037688;28;20550;-79
2022/04/24 08:45:56;;;;;;;8.97;4.10;;;27.60;47.70;;;;;;5053663;28;20824;-79
2022/04/24 08:48:23;;;;;;;5.73;3.20;;;28.20;46.20;;;;;;5058300;28;21104;-77
2022/04/24 08:50:50;;;;;;;6.40;3.37;;;28.50;45.50;;;;;;5058632;28;20434;-79
2022/04/24 08:53:19;;;;;;;4.20;2.90;;;28.50;45.40;;;;;;5055581;28;20435;-80
2022/04/24 08:55:48;;;;;;;5.80;2.13;;;28.90;44.10;;;;;;5053672;28;20494;-78
2022/04/24 08:58:15;;;;;;;3.67;2.80;;;28.40;44.00;;;;;;5042980;28;20455;-79
2022/04/24 09:00:43;;;;;;;5.67;2.80;;;28.20;44.60;;;;;;5055821;28;20538;-79
2022/04/24 09:03:10;;;;;;;5.10;2.87;;;28.90;44.40;;;;;;5056456;28;20473;-77
2022/04/24 09:05:44;;;;;;;4.57;3.00;;;29.20;43.00;;;;;;5057965;28;20446;-80
2022/04/24 09:08:12;;;;;;;5.00;3.00;;;28.00;43.80;;;;;;5061126;28;20423;-81
2022/04/24 09:10:51;;;;;;;5.20;2.80;;;27.20;44.70;;;;;;5041165;28;20432;-79
2022/04/24 09:14:14;;;;;;;8.00;2.90;;;26.60;45.60;;;;;;5052336;28;20759;-78
2022/04/24 09:16:20;;;;;;;4.17;2.50;;;25.20;46.60;;;;;;5048619;28;20443;-79
2022/04/24 09:18:47;;;;;;;4.30;3.23;;;24.70;48.50;;;;;;5047794;28;20497;-78
2022/04/24 09:21:14;;;;;;;3.67;2.63;;;24.50;48.80;;;;;;5060486;28;20537;-79
2022/04/24 09:23:42;;;;;;;2.83;2.10;;;24.50;48.40;;;;;;5060339;28;20446;-78
2022/04/24 09:26:16;;;;;;;3.87;2.33;;;24.70;49.00;;;;;;5060391;28;20486;-81
2022/04/24 09:28:43;;;;;;;4.37;2.90;;;25.70;48.40;;;;;;5059950;28;20442;-80
2022/04/24 09:31:10;;;;;;;4.00;2.97;;;26.20;47.20;;;;;;5057813;28;20443;-81
2022/04/24 09:33:39;;;;;;;2.40;2.20;;;25.00;46.40;;;;;;5039843;28;20483;-81
2022/04/24 09:36:07;;;;;;;3.50;2.60;;;23.50;48.60;;;;;;5039474;28;20573;-81
2022/04/24 09:38:41;;;;;;;3.30;2.60;;;22.00;50.90;;;;;;5049494;28;20439;-83
2022/04/24 09:41:17;;;;;;;5.17;2.60;;;21.30;53.10;;;;;;5049987;28;20584;-83
2022/04/24 09:43:44;;;;;;;3.30;2.53;;;21.40;53.40;;;;;;5044466;28;20473;-85
2022/04/24 09:46:11;;;;;;;5.17;2.83;;;21.80;52.80;;;;;;5051929;28;20867;-83
2022/04/24 09:48:38;;;;;;;4.50;2.80;;;22.40;52.40;;;;;;5042266;28;20459;-83
2022/04/24 09:51:06;;;;;;;4.23;3.20;;;23.00;52.50;;;;;;5033988;28;20511;-83
2022/04/24 09:53:41;;;;;;;4.70;2.87;;;24.00;50.70;;;;;;5041716;28;20457;-84
2022/04/24 09:56:12;;;;;;;6.18;2.60;;;23.50;47.90;;;;;;5036450;28;20443;-81
2022/04/24 09:58:42;;;;;;;3.60;2.80;;;23.60;48.60;;;;;;5045672;28;20215;-83
2022/04/24 10:01:09;;;;;;;2.80;2.23;;;23.90;50.10;;;;;;5038412;28;20488;-82
2022/04/24 10:03:38;;;;;;;5.20;3.07;;;24.50;49.00;;;;;;5043753;28;20460;-82
2022/04/24 10:06:06;;;;;;;4.10;2.27;;;25.40;48.50;;;;;;5042631;28;20467;-83
2022/04/24 10:08:34;;;;;;;4.33;2.90;;;26.00;46.70;;;;;;5034194;28;20487;-81
2022/04/24 10:11:04;;;;;;;3.90;2.40;;;26.50;46.10;;;;;;5046856;28;20482;-81
2022/04/24 10:13:32;;;;;;;7.03;2.70;;;25.90;45.30;;;;;;5044111;28;20447;-83
2022/04/24 10:16:15;;;;;;;5.20;2.40;;;25.90;45.60;;;;;;5033237;28;20478;-82
2022/04/24 10:18:53;;;;;;;2.87;2.30;;;25.80;45.10;;;;;;5052803;28;20443;-83
2022/04/24 10:22:02;;;;;;;6.73;2.63;;;25.40;45.70;;;;;;5053323;28;20482;-82
2022/04/24 10:24:40;;;;;;;3.20;2.57;;;25.10;45.70;;;;;;5044072;28;20550;-82
2022/04/24 10:27:07;;;;;;;3.63;2.50;;;24.20;46.00;;;;;;5052528;28;20478;-81
2022/04/24 10:29:34;;;;;;;4.60;2.60;;;23.60;47.00;;;;;;5046778;28;20447;-83
2022/04/24 10:32:09;;;;;;;5.63;3.10;;;23.10;48.00;;;;;;5046332;28;20518;-83
2022/04/24 10:34:39;;;;;;;3.70;2.83;;;22.80;48.30;;;;;;5039685;28;20471;-83
2022/04/24 10:37:08;;;;;;;4.10;2.90;;;22.80;49.20;;;;;;5039346;28;20454;-81
2022/04/24 10:39:35;;;;;;;5.10;2.67;;;22.20;50.20;;;;;;5027956;28;20490;-83
2022/04/24 10:42:09;;;;;;;4.73;2.87;;;21.80;50.90;;;;;;5036143;28;20482;-84
2022/04/24 10:44:49;;;;;;;6.40;3.47;;;21.90;51.90;;;;;;5041209;28;20553;-85
2022/04/24 10:47:17;;;;;;;7.33;3.37;;;21.70;51.90;;;;;;5034735;28;20761;-81
2022/04/24 10:49:44;;;;;;;5.33;2.80;;;21.60;52.10;;;;;;5033207;28;20462;-81
2022/04/24 10:52:12;;;;;;;3.47;2.80;;;21.60;52.20;;;;;;5036903;28;20586;-83
2022/04/24 10:54:40;;;;;;;5.20;3.17;;;21.40;51.70;;;;;;5044007;28;20479;-82
2022/04/24 10:57:18;;;;;;;4.53;3.23;;;21.10;51.90;;;;;;5029238;28;20482;-85
2022/04/24 10:59:48;;;;;;;2.53;2.30;;;20.70;53.30;;;;;;5046038;28;20496;-86
2022/04/24 11:02:15;;;;;;;4.53;3.00;;;20.80;54.10;;;;;;5041199;28;20470;-84
2022/04/24 11:04:43;;;;;;;5.00;3.07;;;20.40;53.00;;;;;;5043522;28;20464;-83
2022/04/24 11:07:21;;;;;;;4.20;3.40;;;19.90;53.00;;;;;;5049014;28;20490;-85
2022/04/24 11:09:48;;;;;;;3.53;2.10;;;19.60;54.20;;;;;;5055900;28;20453;-84
2022/04/24 11:12:15;;;;;;;7.30;3.00;;;19.30;54.80;;;;;;5057425;28;20433;-82
2022/04/24 11:14:42;;;;;;;6.03;3.27;;;19.40;55.40;;;;;;5054815;28;20497;-84
2022/04/24 11:17:10;;;;;;;5.63;2.90;;;19.70;55.20;;;;;;5047449;28;21307;-80
2022/04/24 11:19:38;;;;;;;4.43;2.80;;;20.00;55.00;;;;;;5045697;28;20452;-79
2022/04/24 11:22:10;;;;;;;3.17;2.87;;;19.80;54.80;;;;;;5038483;28;20480;-80
2022/04/24 11:24:38;;;;;;;4.40;3.37;;;19.70;54.90;;;;;;5038194;28;20484;-79
2022/04/24 11:27:06;;;;;;;6.13;2.93;;;19.80;54.90;;;;;;5037971;28;20460;-80
2022/04/24 11:29:33;;;;;;;4.20;3.07;;;19.70;55.00;;;;;;5037298;28;20457;-80
2022/04/24 11:32:13;;;;;;;8.20;4.13;;;19.60;55.20;;;;;;5150871;27;20328;-73
2022/04/24 11:34:40;;;;;;;3.90;2.80;;;19.70;55.30;;;;;;5115156;27;20453;-73
2022/04/24 11:37:09;;;;;;;4.67;2.93;;;19.90;55.10;;;;;;5110588;28;20925;-73
2022/04/24 11:39:39;;;;;;;5.80;2.97;;;19.50;54.50;;;;;;5100506;28;20514;-74
2022/04/24 11:42:06;;;;;;;4.77;3.33;;;19.30;55.40;;;;;;5105521;28;20434;-73
2022/04/24 11:50:14;;;;;;;3.03;2.30;;;19.10;55.90;;;;;;5100254;28;20478;-72
2022/04/24 11:52:43;;;;;;;4.73;2.73;;;19.10;57.30;;;;;;5101710;28;20939;-74
2022/04/24 11:55:11;;;;;;;5.43;3.30;;;19.40;56.60;;;;;;5109153;28;20444;-73
2022/04/24 11:57:38;;;;;;;3.67;3.07;;;19.40;55.90;;;;;;5102242;28;20472;-72
2022/04/24 12:00:09;;;;;;;7.30;3.13;;;19.30;55.80;;;;;;5096702;28;20518;-73
2022/04/24 12:02:37;;;;;;;6.43;3.20;;;19.20;56.10;;;;;;5111212;28;20445;-73
2022/04/24 12:05:09;;;;;;;3.60;2.70;;;18.90;56.90;;;;;;5094171;28;20435;-73
2022/04/24 12:07:37;;;;;;;4.20;2.47;;;18.90;57.40;;;;;;5097215;28;20436;-73
2022/04/24 12:10:06;;;;;;;4.10;2.40;;;19.10;57.30;;;;;;5094106;28;20491;-73
2022/04/24 12:12:45;;;;;;;3.20;2.50;;;19.30;57.30;;;;;;5094965;28;20457;-72
2022/04/24 12:15:14;;;;;;;10.50;2.80;;;19.10;56.20;;;;;;5097322;28;20443;-73
2022/04/24 12:17:51;;;;;;;4.67;2.90;;;18.90;56.00;;;;;;5092928;28;20459;-74
2022/04/24 12:20:18;;;;;;;5.00;3.00;;;18.50;55.80;;;;;;5096926;28;20443;-75
2022/04/24 12:22:46;;;;;;;3.83;2.60;;;18.10;56.70;;;;;;5092360;28;20436;-74
2022/04/24 12:25:17;;;;;;;3.37;2.70;;;18.00;57.10;;;;;;5094494;28;20966;-74
2022/04/24 12:27:55;;;;;;;3.00;2.40;;;18.10;57.10;;;;;;5096463;28;20443;-73
2022/04/24 12:30:24;;;;;;;7.00;2.80;;;18.20;57.10;;;;;;5093026;28;20481;-73
2022/04/24 12:32:52;;;;;;;6.13;3.00;;;18.40;57.20;;;;;;5101516;28;21288;-74
2022/04/24 12:35:30;;;;;;;3.80;3.33;;;18.60;57.40;;;;;;5097698;28;20474;-73
2022/04/24 12:37:57;;;;;;;4.33;3.17;;;18.60;56.90;;;;;;5101404;28;20844;-73
2022/04/24 12:40:24;;;;;;;5.30;3.00;;;18.70;56.80;;;;;;5103962;28;20527;-74
2022/04/24 12:42:52;;;;;;;4.33;2.97;;;18.60;56.70;;;;;;5095060;28;20840;-73
2022/04/24 12:45:20;;;;;;;4.40;3.03;;;18.60;56.90;;;;;;5086571;28;20460;-72
2022/04/24 12:47:47;;;;;;;7.90;4.17;;;18.30;57.20;;;;;;5088135;28;20571;-72
2022/04/24 12:50:16;;;;;;;3.03;2.73;;;18.10;57.60;;;;;;5083379;28;20460;-73
2022/04/24 12:52:43;;;;;;;4.27;2.83;;;18.10;57.30;;;;;;5083179;28;20440;-73
2022/04/24 12:55:10;;;;;;;3.20;2.13;;;18.00;57.70;;;;;;5081753;28;20446;-73
2022/04/24 12:57:38;;;;;;;6.33;3.20;;;18.00;57.40;;;;;;5094542;28;20455;-72
2022/04/24 13:00:06;;;;;;;3.30;2.43;;;17.90;57.10;;;;;;5089911;28;20441;-72
2022/04/24 13:02:33;;;;;;;3.83;2.27;;;17.90;56.50;;;;;;5092694;28;20452;-73
2022/04/24 13:05:00;;;;;;;3.90;2.50;;;17.80;57.40;;;;;;5080217;28;20441;-73
2022/04/24 13:07:29;;;;;;;4.70;3.00;;;17.50;61.60;;;;;;5093985;28;20529;-74
2022/04/24 13:09:57;;;;;;;5.30;2.90;;;17.40;61.50;;;;;;5083298;28;20512;-72
2022/04/24 13:12:25;;;;;;;5.20;2.93;;;17.30;61.40;;;;;;5093919;28;21232;-74
2022/04/24 13:14:51;;;;;;;4.90;3.20;;;17.30;60.50;;;;;;5094518;28;20838;-73
2022/04/24 13:20:03;;;;;;;3.33;3.03;;;17.80;60.60;;;;;;5084689;28;20440;-73
2022/04/24 13:22:31;;;;;;;3.53;2.77;;;18.30;58.70;;;;;;5094045;28;20455;-73
2022/04/24 13:24:58;;;;;;;4.20;2.90;;;18.50;58.80;;;;;;5081140;28;20469;-73
2022/04/24 13:27:25;;;;;;;3.73;3.03;;;18.80;58.10;;;;;;5082753;28;20818;-71
2022/04/24 13:29:52;;;;;;;4.27;2.87;;;19.00;56.50;;;;;;5081154;28;20564;-73